Zhytomyr, Ukraine
Current Conditions -  °F | °C
As of 2:00 PM on Saturday 25 Oct 2014 (Local Time) from UKKM Reporting Station
Clear Clear  
Wind Chill: 30°   Ceiling: Unl
Heat Index: 36°   Visibility: 6mi
Dew Point: 16°   Wind: 7mph
Humidity: 44%   Direction: 80°E
Pressure: 30.59"   Gusts: NA
Location:  50.25°N, 28.67°E
Report Text: UKKM 251100Z AUTO 08003MPS 050V120 9999 NCD 02/M09 Q1036
Loading
Personal Weather Stations






























Interactive Weather Map New forecast layout! Learn more

10-Day Weather Forecast

Advertisements
Track Severe Weather on mobile